Time;durP1;ratioP1;P1;durP2;ratioP2;P2;SDS_P1;SDS_P2;PMS_P1;PMS_P2;Temp;Humidity;BMP_temperature;BMP_pressure;BME280_temperature;BME280_humidity;BME280_pressure;Samples;Min_cycle;Max_cycle;Signal;HPM_P1;HPM_P2
2021/01/01 00:01:48;;;;;;;4.37;0.80;;;15.90;94.30;;;;;;4130039;34;20064;-87
2021/01/01 00:04:16;;;;;;;4.28;1.40;;;15.80;94.30;;;;;;4124876;34;20501;-88
2021/01/01 00:06:49;;;;;;;2.65;0.68;;;15.80;93.80;;;;;;4122952;34;20112;-92
2021/01/01 00:09:18;;;;;;;3.20;0.70;;;15.80;93.70;;;;;;4143072;34;20134;-89
2021/01/01 00:11:50;;;;;;;6.35;1.10;;;15.70;93.70;;;;;;4124361;34;20436;-89
2021/01/01 00:14:18;;;;;;;2.55;0.73;;;15.60;93.40;;;;;;4138599;34;20049;-89
2021/01/01 00:16:46;;;;;;;2.53;0.60;;;15.60;94.40;;;;;;4145652;34;20570;-87
2021/01/01 00:19:14;;;;;;;8.02;0.90;;;15.50;95.60;;;;;;4127720;34;20528;-91
2021/01/01 00:21:43;;;;;;;6.30;0.82;;;15.50;95.80;;;;;;4142294;34;20527;-91
2021/01/01 00:24:10;;;;;;;8.20;0.95;;;15.40;96.70;;;;;;4141575;34;20120;-93
2021/01/01 00:26:38;;;;;;;7.95;0.80;;;15.30;97.30;;;;;;4139912;34;20441;-90
2021/01/01 00:29:07;;;;;;;5.25;1.12;;;15.40;97.10;;;;;;4136308;34;20489;-89
2021/01/01 00:31:35;;;;;;;5.95;1.48;;;15.30;97.10;;;;;;4135451;34;20093;-86
2021/01/01 00:34:03;;;;;;;5.50;1.20;;;15.30;97.50;;;;;;4139355;34;20104;-90
2021/01/01 00:36:32;;;;;;;2.08;0.95;;;15.20;98.10;;;;;;4136881;34;20064;-87
2021/01/01 00:39:00;;;;;;;4.55;1.35;;;15.20;98.60;;;;;;4139755;34;20060;-90
2021/01/01 00:41:30;;;;;;;7.43;1.02;;;15.20;98.50;;;;;;4131158;34;20452;-87
2021/01/01 00:43:58;;;;;;;3.80;0.80;;;15.20;99.00;;;;;;4136271;34;20092;-90
2021/01/01 00:46:28;;;;;;;3.33;1.30;;;15.20;99.40;;;;;;4138993;34;20088;-90
2021/01/01 00:48:58;;;;;;;3.83;0.80;;;15.20;99.50;;;;;;4132945;34;20061;-89
2021/01/01 00:51:28;;;;;;;2.67;1.20;;;15.40;99.60;;;;;;4139144;34;20376;-91
2021/01/01 00:53:57;;;;;;;7.50;1.00;;;15.40;99.50;;;;;;4138139;34;20167;-90
2021/01/01 00:56:26;;;;;;;5.18;1.30;;;15.50;99.70;;;;;;4139964;34;20401;-88
2021/01/01 00:58:56;;;;;;;5.32;1.20;;;15.50;99.30;;;;;;4121983;34;20057;-88
2021/01/01 01:01:27;;;;;;;6.75;1.50;;;15.50;98.40;;;;;;4139799;34;20076;-92
2021/01/01 01:03:56;;;;;;;7.50;2.10;;;15.60;97.40;;;;;;4140372;34;20124;-88
2021/01/01 01:06:28;;;;;;;7.75;1.00;;;15.60;97.00;;;;;;4145619;34;20033;-88
2021/01/01 01:08:57;;;;;;;5.37;1.27;;;15.60;97.40;;;;;;4138624;34;20096;-86
2021/01/01 01:11:26;;;;;;;9.00;1.90;;;15.60;97.60;;;;;;4134197;34;20162;-87
2021/01/01 01:13:55;;;;;;;11.18;1.35;;;15.60;97.50;;;;;;4135719;34;20677;-88
2021/01/01 01:16:32;;;;;;;8.85;1.48;;;15.60;97.20;;;;;;4134551;34;21874;-90
2021/01/01 01:19:01;;;;;;;4.03;1.15;;;15.60;96.20;;;;;;4140134;34;20100;-89
2021/01/01 01:21:29;;;;;;;3.65;0.90;;;15.60;95.90;;;;;;4137875;34;20115;-91
2021/01/01 01:23:57;;;;;;;5.65;0.90;;;15.60;95.90;;;;;;4125480;34;20101;-86
2021/01/01 01:26:25;;;;;;;3.40;0.85;;;15.60;95.70;;;;;;4144324;34;20591;-85
2021/01/01 01:28:53;;;;;;;4.25;1.20;;;15.60;94.90;;;;;;4135862;34;20057;-93
2021/01/01 01:31:21;;;;;;;4.55;1.17;;;15.60;95.50;;;;;;4121201;34;20057;-90
2021/01/01 01:33:49;;;;;;;3.58;0.90;;;15.60;95.90;;;;;;4116655;34;20131;-90
2021/01/01 01:36:17;;;;;;;6.40;1.05;;;15.50;95.70;;;;;;4127864;34;20119;-90
2021/01/01 01:38:45;;;;;;;7.00;1.10;;;15.60;94.90;;;;;;4140320;34;20084;-89
2021/01/01 01:41:13;;;;;;;1.33;0.50;;;15.60;94.50;;;;;;4134338;34;20087;-90
2021/01/01 01:43:41;;;;;;;2.22;0.50;;;15.60;93.50;;;;;;4126476;34;20118;-90
2021/01/01 01:46:09;;;;;;;1.20;0.55;;;15.60;93.30;;;;;;4126823;34;20253;-91
2021/01/01 01:48:38;;;;;;;1.27;0.45;;;15.60;94.00;;;;;;4125127;34;20450;-89
2021/01/01 01:51:09;;;;;;;3.05;0.90;;;15.60;95.00;;;;;;4142377;34;20450;-92
2021/01/01 01:53:46;;;;;;;4.55;0.93;;;15.60;94.50;;;;;;4134386;34;20053;-88
2021/01/01 01:56:15;;;;;;;3.05;1.40;;;15.60;94.20;;;;;;4123505;34;20084;-91
2021/01/01 01:58:46;;;;;;;4.53;1.30;;;15.60;93.80;;;;;;4134388;34;20393;-88
2021/01/01 02:01:15;;;;;;;3.10;0.62;;;15.60;93.90;;;;;;4122536;34;20139;-87
2021/01/01 02:03:46;;;;;;;3.80;0.85;;;15.60;93.20;;;;;;4109984;34;20136;-88
2021/01/01 02:06:14;;;;;;;1.27;0.80;;;15.60;93.30;;;;;;4127573;34;20579;-88
2021/01/01 02:08:42;;;;;;;2.42;0.60;;;15.60;93.30;;;;;;4123155;34;20135;-87
2021/01/01 02:11:11;;;;;;;1.80;0.98;;;15.60;93.50;;;;;;4108398;34;20842;-89
2021/01/01 02:13:39;;;;;;;5.78;0.77;;;15.50;93.50;;;;;;4104704;34;20100;-89
2021/01/01 02:16:09;;;;;;;5.30;1.35;;;15.50;93.50;;;;;;4133606;34;20105;-91
2021/01/01 02:18:45;;;;;;;4.25;1.08;;;15.60;94.10;;;;;;4128689;34;20108;-87
2021/01/01 02:21:16;;;;;;;10.38;1.05;;;15.50;93.20;;;;;;4126248;34;20513;-88
2021/01/01 02:23:45;;;;;;;6.90;0.77;;;15.40;93.00;;;;;;4135315;34;20482;-91
2021/01/01 02:26:14;;;;;;;3.70;0.70;;;15.50;93.00;;;;;;4127370;34;20057;-90
2021/01/01 02:28:42;;;;;;;0.57;0.57;;;15.60;92.80;;;;;;4128886;34;20147;-90
2021/01/01 02:31:10;;;;;;;2.10;0.60;;;15.60;92.50;;;;;;4119019;34;20164;-89
2021/01/01 02:33:38;;;;;;;2.05;1.02;;;15.60;92.40;;;;;;4135743;34;20064;-89
2021/01/01 02:36:06;;;;;;;7.32;1.20;;;15.60;92.60;;;;;;4137916;34;20074;-86
2021/01/01 02:38:37;;;;;;;2.75;0.80;;;15.50;93.20;;;;;;4131323;34;20563;-90
2021/01/01 02:41:06;;;;;;;2.62;1.12;;;15.60;92.40;;;;;;4131811;34;20120;-93
2021/01/01 02:43:34;;;;;;;7.62;0.70;;;15.50;92.60;;;;;;4129258;34;20068;-87
2021/01/01 02:46:02;;;;;;;3.17;0.60;;;15.40;92.00;;;;;;4131506;34;20485;-89
2021/01/01 02:48:30;;;;;;;1.10;0.60;;;15.40;92.20;;;;;;4109589;34;20120;-89
2021/01/01 02:50:58;;;;;;;2.50;0.88;;;15.40;92.10;;;;;;4125458;34;20053;-89
2021/01/01 02:53:27;;;;;;;1.52;0.57;;;15.40;92.50;;;;;;4133057;34;20069;-87
2021/01/01 02:55:55;;;;;;;0.77;0.57;;;15.40;93.00;;;;;;4127437;34;20073;-88
2021/01/01 02:58:23;;;;;;;0.62;0.40;;;15.50;92.70;;;;;;4115002;34;20049;-86
2021/01/01 03:00:50;;;;;;;4.68;1.00;;;15.50;92.40;;;;;;4123962;34;20111;-89
2021/01/01 03:03:19;;;;;;;3.33;0.60;;;15.60;92.50;;;;;;4122117;34;20089;-91
2021/01/01 03:05:47;;;;;;;2.95;1.00;;;15.60;92.50;;;;;;4128340;34;20499;-87
2021/01/01 03:08:15;;;;;;;4.15;1.23;;;15.60;93.60;;;;;;4126791;34;20091;-86
2021/01/01 03:13:51;;;;;;;8.80;1.55;;;15.60;93.60;;;;;;4153318;34;20546;-91
2021/01/01 03:16:20;;;;;;;1.50;0.80;;;15.70;94.90;;;;;;4126027;34;20133;-92
2021/01/01 03:18:48;;;;;;;9.15;1.60;;;15.60;96.20;;;;;;4158032;34;20105;-88
2021/01/01 03:21:38;;;;;;;5.50;1.20;;;15.60;96.80;;;;;;4246031;28;20056;31
2021/01/01 03:24:07;;;;;;;1.83;0.73;;;15.60;96.40;;;;;;4150120;28;20058;-89
2021/01/01 03:26:35;;;;;;;1.58;0.90;;;15.60;95.40;;;;;;4144134;34;20073;-90
2021/01/01 03:29:04;;;;;;;5.85;1.40;;;15.70;95.80;;;;;;4139255;34;20127;-87
2021/01/01 03:31:32;;;;;;;10.98;0.85;;;15.60;96.60;;;;;;4149676;34;20414;-93
2021/01/01 03:34:01;;;;;;;2.05;0.95;;;15.50;96.60;;;;;;4128821;34;20078;-85
2021/01/01 03:36:28;;;;;;;2.90;0.75;;;15.60;96.20;;;;;;4138181;34;20135;-92
2021/01/01 03:38:57;;;;;;;2.08;1.30;;;15.60;96.00;;;;;;4151151;34;20417;-86
2021/01/01 03:41:24;;;;;;;2.42;0.60;;;15.60;96.40;;;;;;4154808;34;20041;-88
2021/01/01 03:43:52;;;;;;;4.28;0.80;;;15.60;96.00;;;;;;4141228;34;20107;-90
2021/01/01 03:46:20;;;;;;;3.22;0.80;;;15.50;94.90;;;;;;4134132;34;20142;-88
2021/01/01 03:48:48;;;;;;;4.32;0.75;;;15.60;94.60;;;;;;4144783;34;20052;-89
2021/01/01 03:51:18;;;;;;;2.55;0.50;;;15.60;94.80;;;;;;4135134;34;20130;-91
2021/01/01 03:53:46;;;;;;;3.03;0.80;;;15.60;94.90;;;;;;4142788;34;20132;-84
2021/01/01 03:56:14;;;;;;;5.28;0.95;;;15.60;95.20;;;;;;4148410;34;20136;-87
2021/01/01 03:58:42;;;;;;;6.12;0.90;;;15.60;95.20;;;;;;4149195;34;20139;-87
2021/01/01 04:01:10;;;;;;;1.12;0.57;;;15.50;95.20;;;;;;4147123;34;20104;-86
2021/01/01 04:03:38;;;;;;;4.10;0.57;;;15.60;94.90;;;;;;4159457;34;20056;-90
2021/01/01 04:06:06;;;;;;;5.15;0.60;;;15.60;95.20;;;;;;4139345;34;20074;-87
2021/01/01 04:08:34;;;;;;;1.87;0.60;;;15.60;94.90;;;;;;4135260;34;20079;-88
2021/01/01 04:11:02;;;;;;;5.93;0.98;;;15.60;94.10;;;;;;4138769;34;20116;-91
2021/01/01 04:13:30;;;;;;;6.18;1.08;;;15.60;94.00;;;;;;4145142;34;20056;-89
2021/01/01 04:16:01;;;;;;;1.08;0.62;;;15.60;93.40;;;;;;4144813;34;20836;-87
2021/01/01 04:18:30;;;;;;;0.90;0.65;;;15.60;93.30;;;;;;4136182;34;20558;-84
2021/01/01 04:20:58;;;;;;;1.15;0.47;;;15.60;92.70;;;;;;4138658;34;20064;-84
2021/01/01 04:23:25;;;;;;;4.03;0.60;;;15.60;92.80;;;;;;4141705;34;20139;-87
2021/01/01 04:25:53;;;;;;;0.95;0.50;;;15.60;92.80;;;;;;4147193;34;20155;-90
2021/01/01 04:28:21;;;;;;;2.00;0.50;;;15.50;93.00;;;;;;4127456;34;20150;-87
2021/01/01 04:30:49;;;;;;;2.87;0.80;;;15.50;93.10;;;;;;4139482;34;20124;-85
2021/01/01 04:33:17;;;;;;;3.40;0.52;;;15.50;93.10;;;;;;4144170;34;20581;-86
2021/01/01 04:35:45;;;;;;;3.80;0.70;;;15.60;93.30;;;;;;4141554;34;20123;-83
2021/01/01 04:38:13;;;;;;;2.58;0.68;;;15.60;92.80;;;;;;4149126;34;20090;-85
2021/01/01 04:40:41;;;;;;;1.20;0.40;;;15.60;92.50;;;;;;4133298;34;20138;-84
2021/01/01 04:43:09;;;;;;;0.88;0.57;;;15.60;91.90;;;;;;4149283;34;20110;-92
2021/01/01 04:45:37;;;;;;;3.10;0.85;;;15.60;92.60;;;;;;4137096;34;20566;-88
2021/01/01 04:48:06;;;;;;;0.47;0.45;;;15.60;92.50;;;;;;4134994;34;20142;-84
2021/01/01 04:50:34;;;;;;;2.22;0.80;;;15.60;92.60;;;;;;4142913;34;20176;-87
2021/01/01 04:53:02;;;;;;;1.30;0.57;;;15.60;93.30;;;;;;4136855;34;20104;-88
2021/01/01 04:55:32;;;;;;;3.65;0.90;;;15.60;93.00;;;;;;4141229;34;20137;-89
2021/01/01 04:58:02;;;;;;;2.55;0.68;;;15.60;92.70;;;;;;4124777;34;20349;-89
2021/01/01 05:00:29;;;;;;;0.55;0.30;;;15.60;92.90;;;;;;4142509;34;20114;-86
2021/01/01 05:02:57;;;;;;;0.25;0.25;;;15.60;91.30;;;;;;4114103;34;20241;-86
2021/01/01 05:05:27;;;;;;;1.33;0.85;;;15.60;91.70;;;;;;4146419;34;20065;-88
2021/01/01 05:07:55;;;;;;;0.70;0.40;;;15.60;91.70;;;;;;4135758;34;20060;-87
2021/01/01 05:10:23;;;;;;;1.35;0.22;;;15.60;92.10;;;;;;4119748;34;20946;-87
2021/01/01 05:12:51;;;;;;;18.45;1.25;;;15.70;92.30;;;;;;4144040;34;20091;-88
2021/01/01 05:15:35;;;;;;;2.72;0.60;;;15.60;93.20;;;;;;4140489;34;20392;-87
2021/01/01 05:18:19;;;;;;;3.70;1.05;;;15.60;93.30;;;;;;4143636;34;20071;-88
2021/01/01 05:21:02;;;;;;;2.85;0.75;;;15.60;93.40;;;;;;4142389;34;20503;-91
2021/01/01 05:23:31;;;;;;;0.88;0.40;;;15.60;93.60;;;;;;4141678;34;20105;-91
2021/01/01 05:26:10;;;;;;;3.87;0.80;;;15.60;94.40;;;;;;4135089;34;20139;-88
2021/01/01 05:28:52;;;;;;;3.72;0.80;;;15.60;94.80;;;;;;4142425;34;20143;-89
2021/01/01 05:31:23;;;;;;;4.50;1.23;;;15.60;94.60;;;;;;4145193;34;20119;-86
2021/01/01 05:34:02;;;;;;;1.15;0.50;;;15.60;93.60;;;;;;4147877;34;20134;-89
2021/01/01 05:36:36;;;;;;;1.87;0.60;;;15.60;92.80;;;;;;4140132;34;20070;-92
2021/01/01 05:39:24;;;;;;;3.58;0.62;;;15.60;92.70;;;;;;4141404;34;20115;-87
2021/01/01 05:41:53;;;;;;;2.53;0.60;;;15.60;93.00;;;;;;4136195;34;20103;-89
2021/01/01 05:44:28;;;;;;;4.32;0.90;;;15.60;91.80;;;;;;4139133;34;20076;-92
2021/01/01 05:47:16;;;;;;;3.33;0.82;;;15.60;92.10;;;;;;4118395;34;20174;-86
2021/01/01 05:49:44;;;;;;;3.87;1.00;;;15.70;92.80;;;;;;4142565;34;20556;-89
2021/01/01 05:52:23;;;;;;;6.30;1.23;;;15.70;92.50;;;;;;4129839;34;20130;-88
2021/01/01 05:55:03;;;;;;;5.07;0.90;;;15.60;93.30;;;;;;4139143;34;20175;-91
2021/01/01 05:57:36;;;;;;;3.67;1.20;;;15.60;92.80;;;;;;4134443;34;20131;-95
2021/01/01 06:00:09;;;;;;;5.57;1.58;;;15.60;92.90;;;;;;4134560;34;20099;-87
2021/01/01 06:02:39;;;;;;;1.55;0.52;;;15.60;92.80;;;;;;4143557;34;20725;-89
2021/01/01 06:05:12;;;;;;;3.78;0.50;;;15.60;93.20;;;;;;4149824;34;20117;-85
2021/01/01 06:07:50;;;;;;;1.80;0.50;;;15.70;93.50;;;;;;4146279;34;20075;-89
2021/01/01 06:10:19;;;;;;;2.10;0.77;;;15.70;93.90;;;;;;4144997;34;20501;-89
2021/01/01 06:12:53;;;;;;;7.72;1.00;;;15.70;94.50;;;;;;4141461;34;20103;-87
2021/01/01 06:15:22;;;;;;;5.97;1.20;;;15.70;98.80;;;;;;4132603;34;20142;-84
2021/01/01 06:17:53;;;;;;;1.98;0.50;;;15.60;99.90;;;;;;4139875;34;20100;-88
2021/01/01 06:20:22;;;;;;;4.93;0.73;;;15.60;99.60;;;;;;4144005;34;20156;-88
2021/01/01 06:23:02;;;;;;;4.72;0.93;;;15.60;99.60;;;;;;4148683;34;20125;-87
2021/01/01 06:25:30;;;;;;;1.52;0.70;;;15.60;99.90;;;;;;4141621;34;20098;-90
2021/01/01 06:28:03;;;;;;;3.67;0.68;;;15.60;99.90;;;;;;4128817;34;20124;-87
2021/01/01 06:30:34;;;;;;;5.57;0.82;;;15.60;99.90;;;;;;4151106;34;20070;-91
2021/01/01 06:33:07;;;;;;;6.62;0.70;;;15.50;99.90;;;;;;4140794;34;20389;-88
2021/01/01 06:35:42;;;;;;;1.77;0.80;;;15.50;99.90;;;;;;4149031;34;20062;-88
2021/01/01 06:38:11;;;;;;;3.92;1.48;;;15.50;99.90;;;;;;4124364;34;20132;-87
2021/01/01 06:40:39;;;;;;;3.37;1.05;;;15.50;99.90;;;;;;4152542;34;20070;-87
2021/01/01 06:43:08;;;;;;;3.37;1.00;;;15.50;99.60;;;;;;4152963;34;20056;-89
2021/01/01 06:45:48;;;;;;;3.33;0.73;;;15.60;99.00;;;;;;4146692;34;20120;-87
2021/01/01 06:48:18;;;;;;;3.47;0.82;;;15.60;98.40;;;;;;4149779;34;20061;-88
2021/01/01 06:50:52;;;;;;;1.60;0.60;;;15.60;98.20;;;;;;4131898;34;20068;-87
2021/01/01 06:53:28;;;;;;;3.97;0.73;;;15.60;97.90;;;;;;4137745;34;20392;-89
2021/01/01 06:56:08;;;;;;;0.62;0.52;;;15.60;98.20;;;;;;4150319;34;20157;-88
2021/01/01 06:58:36;;;;;;;1.62;0.60;;;15.60;98.30;;;;;;4136799;34;20064;-91
2021/01/01 07:01:15;;;;;;;1.50;0.70;;;15.60;98.00;;;;;;4145231;34;20528;-85
2021/01/01 07:03:43;;;;;;;4.65;1.17;;;15.60;97.90;;;;;;4137392;34;20244;-85
2021/01/01 07:06:12;;;;;;;4.20;0.80;;;15.60;98.10;;;;;;4148132;34;20153;-90
2021/01/01 07:08:42;;;;;;;1.80;0.80;;;15.60;97.80;;;;;;4158034;34;20068;-84
2021/01/01 07:11:11;;;;;;;2.62;0.70;;;15.60;97.60;;;;;;4149503;34;20691;-91
2021/01/01 07:13:42;;;;;;;2.35;1.00;;;15.60;97.60;;;;;;4146394;34;20131;-85
2021/01/01 07:16:12;;;;;;;6.85;0.80;;;15.60;98.00;;;;;;4147089;34;20091;-90
2021/01/01 07:18:40;;;;;;;2.58;1.00;;;15.60;97.80;;;;;;4133335;34;20103;-88
2021/01/01 07:21:17;;;;;;;4.55;0.85;;;15.60;97.80;;;;;;4144166;34;20113;-92
2021/01/01 07:23:46;;;;;;;4.97;0.60;;;15.70;97.80;;;;;;4130522;34;20052;-87
2021/01/01 07:26:16;;;;;;;4.35;1.05;;;15.70;97.40;;;;;;4132654;34;20056;-88
2021/01/01 07:28:48;;;;;;;0.88;0.30;;;15.70;97.00;;;;;;4152806;34;20112;-89
2021/01/01 07:31:18;;;;;;;4.22;0.60;;;15.70;96.80;;;;;;4128383;34;20139;-90
2021/01/01 07:33:49;;;;;;;2.72;0.68;;;15.70;96.70;;;;;;4145729;34;20183;-84
2021/01/01 07:36:17;;;;;;;3.75;0.77;;;15.70;96.60;;;;;;4159185;34;20082;-87
2021/01/01 07:38:47;;;;;;;7.47;0.73;;;15.70;96.90;;;;;;4135542;34;20060;-86
2021/01/01 07:41:21;;;;;;;2.53;0.65;;;15.80;97.00;;;;;;4148231;34;20096;-88
2021/01/01 07:43:50;;;;;;;;;;;15.70;96.60;;;;;;4132818;34;22058;-87
2021/01/01 07:46:18;;;;;;;2.20;0.50;;;15.80;96.80;;;;;;4142800;34;20017;-87
2021/01/01 07:48:52;;;;;;;3.55;0.50;;;15.80;96.70;;;;;;4146940;34;20141;-87
2021/01/01 07:51:22;;;;;;;2.67;0.60;;;15.80;96.50;;;;;;4145586;34;20130;-90
2021/01/01 07:53:57;;;;;;;5.43;1.02;;;15.80;96.50;;;;;;4135205;34;21365;-88
2021/01/01 07:56:25;;;;;;;5.50;0.80;;;15.80;96.30;;;;;;4156416;34;20738;-84
2021/01/01 07:58:54;;;;;;;2.65;0.60;;;15.80;96.10;;;;;;4155940;34;20060;-94
2021/01/01 08:01:23;;;;;;;3.62;0.75;;;15.80;95.90;;;;;;4131168;34;20556;-91
2021/01/01 08:03:51;;;;;;;0.43;0.40;;;15.80;96.30;;;;;;4142309;34;20104;-87
2021/01/01 08:06:19;;;;;;;3.37;0.85;;;15.80;96.30;;;;;;4133117;34;20103;-90
2021/01/01 08:08:47;;;;;;;2.67;0.60;;;15.80;95.90;;;;;;4146268;34;20088;-87
2021/01/01 08:11:17;;;;;;;1.00;0.68;;;15.90;95.50;;;;;;4131748;34;20124;-86
2021/01/01 08:13:45;;;;;;;0.65;0.43;;;15.80;95.70;;;;;;4132811;34;20088;-88
2021/01/01 08:16:16;;;;;;;1.98;0.52;;;15.80;95.80;;;;;;4153259;34;20072;-89
2021/01/01 08:18:47;;;;;;;3.20;0.40;;;15.80;94.70;;;;;;4135847;34;20128;-89
2021/01/01 08:21:15;;;;;;;5.05;0.50;;;15.90;94.70;;;;;;4129771;34;20143;-90
2021/01/01 08:23:56;;;;;;;1.65;0.60;;;15.90;94.20;;;;;;4120082;34;20099;-89
2021/01/01 08:26:26;;;;;;;2.05;1.20;;;15.90;94.60;;;;;;4122979;34;20060;-87
2021/01/01 08:28:57;;;;;;;1.40;0.60;;;16.00;94.00;;;;;;4141961;34;20139;-91
2021/01/01 08:31:25;;;;;;;1.05;0.70;;;16.00;93.70;;;;;;4139761;34;20203;-87
2021/01/01 08:33:54;;;;;;;0.70;0.50;;;16.10;93.70;;;;;;4152969;34;20079;-85
2021/01/01 08:36:33;;;;;;;11.20;1.05;;;16.10;94.60;;;;;;4150402;34;20111;-86
2021/01/01 08:39:12;;;;;;;4.97;1.12;;;16.20;95.10;;;;;;4136810;34;20112;-90
2021/01/01 08:41:47;;;;;;;3.42;0.57;;;16.30;96.00;;;;;;4121858;34;20132;-94
2021/01/01 08:44:17;;;;;;;2.70;0.70;;;16.40;95.90;;;;;;4151155;34;20057;-85
2021/01/01 08:46:46;;;;;;;2.12;0.90;;;16.40;96.70;;;;;;4149249;34;20132;-88
2021/01/01 08:49:19;;;;;;;2.75;0.82;;;16.30;97.10;;;;;;4135373;34;20104;-86
2021/01/01 08:51:50;;;;;;;2.05;0.50;;;16.20;97.10;;;;;;4145718;34;20503;-86
2021/01/01 08:54:36;;;;;;;0.73;0.40;;;16.10;97.10;;;;;;4147200;34;20133;-90
2021/01/01 08:57:06;;;;;;;1.90;0.60;;;16.10;98.20;;;;;;4136652;34;20132;-85
2021/01/01 08:59:33;;;;;;;1.58;0.95;;;16.00;98.80;;;;;;4134557;34;20079;-92
2021/01/01 09:02:12;;;;;;;2.90;0.60;;;16.00;99.10;;;;;;4141427;34;20384;-85
2021/01/01 09:04:47;;;;;;;3.55;0.75;;;16.10;99.00;;;;;;4120035;34;20132;-89
2021/01/01 09:07:15;;;;;;;1.27;0.70;;;16.20;97.70;;;;;;4132076;34;21209;-87
2021/01/01 09:09:43;;;;;;;2.97;0.70;;;16.40;97.50;;;;;;4145872;34;20103;-83
2021/01/01 09:12:16;;;;;;;1.00;0.40;;;16.40;97.00;;;;;;4149206;34;20041;-85
2021/01/01 09:14:55;;;;;;;1.58;0.60;;;16.40;96.00;;;;;;4145559;34;20118;-92
2021/01/01 09:17:25;;;;;;;1.60;0.40;;;16.40;95.50;;;;;;4141610;34;20193;-88
2021/01/01 09:20:07;;;;;;;3.78;0.60;;;16.40;95.80;;;;;;4139029;34;20061;-84
2021/01/01 09:22:38;;;;;;;6.93;0.52;;;16.40;96.20;;;;;;4149164;34;20083;-90
2021/01/01 09:25:23;;;;;;;2.22;1.05;;;16.40;95.40;;;;;;4136348;34;20111;-88
2021/01/01 09:27:53;;;;;;;2.58;0.82;;;16.60;95.50;;;;;;4135649;34;20134;-91
2021/01/01 09:30:27;;;;;;;5.10;1.02;;;16.60;94.40;;;;;;4149283;34;20246;-84
2021/01/01 09:33:01;;;;;;;1.50;0.55;;;16.80;94.00;;;;;;4137912;34;20115;-87
2021/01/01 09:35:31;;;;;;;3.80;1.00;;;16.80;93.80;;;;;;4139576;34;20100;-91
2021/01/01 09:38:01;;;;;;;3.30;0.77;;;17.10;94.00;;;;;;4132270;34;20147;-85
2021/01/01 09:40:34;;;;;;;2.78;2.35;;;17.20;93.20;;;;;;4135872;34;20159;-84
2021/01/01 09:43:05;;;;;;;3.35;3.05;;;17.10;93.30;;;;;;4153412;34;20064;-88
2021/01/01 09:45:38;;;;;;;3.40;3.10;;;17.20;93.10;;;;;;4143731;34;20120;-89
2021/01/01 09:48:07;;;;;;;3.60;3.40;;;17.20;92.70;;;;;;4129623;34;20094;-87
2021/01/01 09:50:35;;;;;;;2.10;1.90;;;17.30;92.70;;;;;;4139936;34;20497;-89
2021/01/01 09:53:03;;;;;;;3.90;1.33;;;17.40;92.40;;;;;;4142135;34;20450;-91
2021/01/01 09:55:32;;;;;;;1.65;0.90;;;17.50;91.80;;;;;;4159743;34;20094;-91
2021/01/01 09:58:01;;;;;;;1.23;0.65;;;17.50;91.80;;;;;;4125460;34;20083;-87
2021/01/01 10:00:49;;;;;;;1.55;0.40;;;17.60;91.70;;;;;;4140873;34;20385;-90
2021/01/01 10:03:17;;;;;;;0.60;0.60;;;17.60;90.90;;;;;;4142404;34;20095;-88
2021/01/01 10:05:49;;;;;;;0.85;0.30;;;17.50;91.40;;;;;;4144425;34;20124;-88
2021/01/01 10:08:17;;;;;;;2.10;1.10;;;17.40;91.00;;;;;;4129814;34;20108;-87
2021/01/01 10:10:45;;;;;;;3.15;0.90;;;17.70;90.90;;;;;;4158450;34;20245;-84
2021/01/01 10:13:13;;;;;;;2.35;1.20;;;17.60;90.90;;;;;;4145245;34;20146;-89
2021/01/01 10:15:42;;;;;;;1.35;1.10;;;17.60;90.80;;;;;;4145576;34;20107;-88
2021/01/01 10:18:10;;;;;;;1.50;1.25;;;17.80;90.90;;;;;;4131461;34;20082;-89
2021/01/01 10:20:38;;;;;;;1.10;1.00;;;17.90;90.20;;;;;;4135773;34;20634;-85
2021/01/01 10:23:07;;;;;;;4.20;1.98;;;17.80;88.10;;;;;;4124846;34;20064;-88
2021/01/01 10:25:35;;;;;;;2.80;2.10;;;17.90;86.40;;;;;;4158787;34;20088;-86
2021/01/01 10:28:03;;;;;;;2.87;1.80;;;18.00;85.80;;;;;;4149524;34;20068;-87
2021/01/01 10:30:35;;;;;;;2.25;1.80;;;18.30;84.70;;;;;;4161858;34;20256;-87
2021/01/01 10:33:17;;;;;;;2.22;2.00;;;18.30;82.40;;;;;;4156468;34;20454;-90
2021/01/01 10:35:46;;;;;;;3.03;1.90;;;18.60;83.10;;;;;;4146663;34;20064;-86
2021/01/01 10:38:14;;;;;;;2.60;2.40;;;18.90;82.00;;;;;;4160346;34;20082;-93
2021/01/01 10:40:42;;;;;;;2.42;2.22;;;19.40;80.20;;;;;;4149464;34;20108;-86
2021/01/01 10:43:10;;;;;;;1.83;1.70;;;19.80;78.00;;;;;;4156688;34;20088;-87
2021/01/01 10:45:38;;;;;;;1.05;0.70;;;19.80;77.40;;;;;;4150929;34;20052;-93
2021/01/01 10:48:07;;;;;;;2.95;2.80;;;19.60;79.40;;;;;;4143437;34;20091;-91
2021/01/01 10:50:35;;;;;;;3.55;2.70;;;20.10;79.80;;;;;;4142217;34;20385;-87
2021/01/01 10:53:05;;;;;;;3.83;3.60;;;22.60;74.60;;;;;;4145934;34;20060;-90
2021/01/01 10:55:35;;;;;;;3.70;3.40;;;24.60;69.00;;;;;;4149226;34;20157;-85
2021/01/01 10:58:03;;;;;;;3.90;3.60;;;24.90;67.10;;;;;;4154738;34;20524;-89
2021/01/01 11:00:36;;;;;;;0.60;0.60;;;24.80;65.20;;;;;;4146240;34;20104;-92
2021/01/01 11:03:05;;;;;;;4.57;0.47;;;23.70;67.60;;;;;;4156497;34;20088;-91
2021/01/01 11:05:35;;;;;;;4.93;0.90;;;21.30;82.70;;;;;;4148093;34;20108;-91
2021/01/01 11:08:03;;;;;;;2.33;0.80;;;19.60;77.50;;;;;;4150286;34;20509;-86
2021/01/01 11:10:32;;;;;;;0.93;0.50;;;19.00;80.40;;;;;;4143920;34;20127;-88
2021/01/01 11:13:03;;;;;;;0.95;0.50;;;19.00;80.10;;;;;;4146370;34;20132;-86
2021/01/01 12:20:45;;;;;;;0.98;0.65;;;19.40;82.10;;;;;;4137589;34;20071;-90
2021/01/01 12:25:54;;;;;;;1.98;1.00;;;19.50;82.70;;;;;;4144970;34;20068;-88
2021/01/01 12:28:24;;;;;;;1.17;0.62;;;19.50;83.30;;;;;;4147338;34;20471;-88
2021/01/01 12:31:09;;;;;;;3.45;1.67;;;19.60;80.90;;;;;;4142212;34;20096;-91
2021/01/01 12:33:38;;;;;;;3.75;1.50;;;19.90;81.60;;;;;;4130565;34;20157;-88
2021/01/01 12:36:06;;;;;;;4.22;1.10;;;19.70;81.20;;;;;;4146974;34;20055;-86
2021/01/01 12:38:34;;;;;;;1.77;1.50;;;19.50;81.50;;;;;;4150456;28;20166;-86
2021/01/01 12:41:03;;;;;;;6.20;1.60;;;19.40;82.70;;;;;;4159031;34;20155;-90
2021/01/01 12:43:31;;;;;;;5.10;1.15;;;19.30;80.20;;;;;;4128639;34;20512;-87
2021/01/01 12:45:59;;;;;;;1.90;0.95;;;19.10;77.50;;;;;;4146678;34;20145;-90
2021/01/01 12:48:27;;;;;;;0.95;0.88;;;19.70;77.10;;;;;;4131180;34;20068;-87
2021/01/01 12:50:55;;;;;;;7.87;0.80;;;19.40;78.20;;;;;;4158014;34;20113;-90
2021/01/01 12:53:25;;;;;;;5.05;0.98;;;19.30;79.60;;;;;;4142080;34;20049;-87
2021/01/01 12:55:54;;;;;;;2.70;0.73;;;19.50;78.20;;;;;;4142982;34;20090;-92
2021/01/01 12:58:22;;;;;;;10.45;0.90;;;19.70;79.10;;;;;;4138284;34;20120;-91
2021/01/01 13:00:49;;;;;;;6.22;0.73;;;19.40;80.40;;;;;;4146001;34;20045;-89
2021/01/01 13:03:18;;;;;;;5.28;0.80;;;19.50;80.80;;;;;;4146988;34;20131;-87
2021/01/01 13:05:46;;;;;;;2.58;0.73;;;19.30;81.00;;;;;;4139007;34;20072;-89
2021/01/01 13:08:13;;;;;;;2.75;1.37;;;19.10;82.60;;;;;;4140810;34;20472;-87
2021/01/01 13:10:42;;;;;;;1.65;1.10;;;19.20;80.40;;;;;;4157297;34;20048;-90
2021/01/01 13:13:13;;;;;;;2.50;1.48;;;19.30;80.20;;;;;;4142305;34;20134;-90
2021/01/01 13:15:41;;;;;;;3.20;1.40;;;19.50;80.60;;;;;;4136271;34;20486;-88
2021/01/01 13:18:09;;;;;;;4.32;1.08;;;19.20;82.40;;;;;;4150624;34;20130;-86
2021/01/01 13:20:37;;;;;;;2.08;0.85;;;19.20;82.40;;;;;;4137642;34;20134;-90
2021/01/01 13:23:05;;;;;;;5.82;1.15;;;19.10;82.90;;;;;;4133496;34;20114;-88
2021/01/01 13:25:40;;;;;;;8.35;0.93;;;19.40;80.40;;;;;;4133679;34;20063;-90
2021/01/01 13:28:08;;;;;;;2.60;1.30;;;19.40;79.40;;;;;;4151501;34;20101;-92
2021/01/01 13:30:37;;;;;;;1.45;0.60;;;19.60;78.80;;;;;;4136503;34;20351;-89
2021/01/01 13:33:04;;;;;;;1.67;0.90;;;19.70;76.90;;;;;;4136213;34;20105;-83
2021/01/01 13:35:32;;;;;;;0.90;0.90;;;19.60;75.20;;;;;;4131215;34;20138;-84
2021/01/01 13:38:02;;;;;;;4.57;0.95;;;19.70;74.00;;;;;;4155531;34;20076;-90
2021/01/01 13:40:30;;;;;;;0.98;0.60;;;19.30;75.00;;;;;;4157422;34;20121;-90
2021/01/01 13:42:58;;;;;;;4.93;0.98;;;19.20;75.30;;;;;;4155635;34;20068;-89
2021/01/01 13:45:27;;;;;;;1.65;0.70;;;19.20;75.90;;;;;;4145298;34;20163;-88
2021/01/01 13:47:55;;;;;;;0.85;0.85;;;19.50;75.20;;;;;;4150541;34;20123;-87
2021/01/01 13:50:27;;;;;;;3.30;0.50;;;20.00;73.70;;;;;;4142351;34;20052;-92
2021/01/01 13:52:55;;;;;;;0.65;0.45;;;20.20;73.60;;;;;;4154592;34;20052;-88
2021/01/01 13:55:25;;;;;;;2.60;0.57;;;19.80;73.90;;;;;;4147519;34;20519;-85
2021/01/01 13:57:53;;;;;;;2.87;0.80;;;19.90;75.50;;;;;;4124091;34;20094;-87
2021/01/01 14:00:23;;;;;;;4.00;0.73;;;20.20;74.40;;;;;;4132599;34;20094;-87
2021/01/01 14:02:56;;;;;;;0.55;0.35;;;20.10;74.90;;;;;;4149572;34;20079;-87
2021/01/01 14:05:25;;;;;;;0.85;0.60;;;19.50;74.70;;;;;;4130433;34;20566;-87
2021/01/01 14:07:53;;;;;;;0.60;0.60;;;19.50;76.40;;;;;;4144978;34;20127;-87
2021/01/01 14:10:24;;;;;;;1.83;0.68;;;20.30;75.40;;;;;;4144759;34;20083;-87
2021/01/01 14:12:52;;;;;;;0.62;0.40;;;20.20;76.50;;;;;;4143304;34;20077;-90
2021/01/01 14:15:19;;;;;;;0.88;0.50;;;20.10;75.90;;;;;;4143191;34;20172;-93